Time;durP1;ratioP1;P1;durP2;ratioP2;P2;SDS_P1;SDS_P2;PMS_P1;PMS_P2;Temp;Humidity;BMP_temperature;BMP_pressure;BME280_temperature;BME280_humidity;BME280_pressure;Samples;Min_cycle;Max_cycle;Signal;HPM_P1;HPM_P2
2023/03/11 00:03:30;;;;;;;1.88;0.75;;;15.10;62.90;;;;;;10445293;28;20096;-59
2023/03/11 00:08:31;;;;;;;1.58;0.88;;;15.10;62.90;;;;;;10448865;28;20048;-59
2023/03/11 00:13:32;;;;;;;2.22;0.63;;;15.00;62.70;;;;;;10447410;28;20317;-57
2023/03/11 00:18:33;;;;;;;3.03;1.10;;;15.00;62.80;;;;;;10433705;28;20434;-57
2023/03/11 00:23:34;;;;;;;2.00;0.52;;;15.00;62.60;;;;;;10448230;28;20044;-59
2023/03/11 00:28:35;;;;;;;1.30;0.60;;;15.00;62.70;;;;;;10446722;28;20040;-59
2023/03/11 00:33:35;;;;;;;1.17;0.52;;;15.00;62.80;;;;;;10446288;28;20028;-58
2023/03/11 00:38:36;;;;;;;1.65;0.60;;;14.90;62.60;;;;;;10446117;28;20447;-58
2023/03/11 00:43:37;;;;;;;1.08;0.60;;;14.90;62.60;;;;;;10446134;28;20068;-58
2023/03/11 00:48:38;;;;;;;3.10;1.13;;;14.90;62.70;;;;;;10441865;28;20016;-59
2023/03/11 00:53:38;;;;;;;3.72;1.48;;;14.80;62.50;;;;;;10439465;28;20576;-58
2023/03/11 00:58:41;;;;;;;1.40;0.57;;;14.80;62.70;;;;;;10445288;28;20025;-58
2023/03/11 01:03:43;;;;;;;0.77;0.40;;;14.80;62.80;;;;;;10445250;28;20021;-58
2023/03/11 01:08:43;;;;;;;0.70;0.43;;;14.80;62.80;;;;;;10445154;28;20470;-59
2023/03/11 01:13:44;;;;;;;1.75;0.60;;;14.80;62.80;;;;;;10445787;28;20033;-58
2023/03/11 01:18:45;;;;;;;1.73;1.00;;;14.80;62.90;;;;;;10446512;28;20415;-59
2023/03/11 01:23:45;;;;;;;1.98;0.65;;;14.70;62.80;;;;;;10446038;28;20760;-59
2023/03/11 01:28:47;;;;;;;0.77;0.50;;;14.70;62.70;;;;;;10444418;28;20239;-57
2023/03/11 01:33:48;;;;;;;1.70;0.68;;;14.70;62.70;;;;;;10446102;28;20029;-59
2023/03/11 01:38:48;;;;;;;1.65;0.50;;;14.70;62.80;;;;;;10444739;28;20033;-57
2023/03/11 01:43:53;;;;;;;1.25;0.50;;;14.70;62.60;;;;;;10444419;28;20548;-57
2023/03/11 01:49:00;;;;;;;1.92;0.60;;;14.70;62.80;;;;;;10436769;28;20045;-58
2023/03/11 01:54:06;;;;;;;1.08;0.80;;;14.60;62.70;;;;;;10455011;28;20461;-59
2023/03/11 01:59:14;;;;;;;2.40;0.80;;;14.60;62.70;;;;;;10443422;28;20440;-59
2023/03/11 02:04:16;;;;;;;2.25;1.05;;;14.60;62.60;;;;;;10442722;28;20500;-59
2023/03/11 02:09:16;;;;;;;1.38;0.60;;;14.60;62.70;;;;;;10443839;28;20049;-57
2023/03/11 02:14:18;;;;;;;0.80;0.50;;;14.60;62.60;;;;;;10443797;28;20032;-59
2023/03/11 02:19:46;;;;;;;2.00;0.80;;;14.60;62.70;;;;;;10419416;28;20020;-59
2023/03/11 02:25:21;;;;;;;2.67;0.82;;;14.50;62.60;;;;;;10434066;28;20036;-59
2023/03/11 02:30:24;;;;;;;2.10;0.90;;;14.50;62.60;;;;;;10442678;28;20395;-58
2023/03/11 02:35:25;;;;;;;1.90;0.70;;;14.50;62.60;;;;;;10441820;28;20384;-59
2023/03/11 02:40:52;;;;;;;1.75;0.70;;;14.50;62.50;;;;;;10443194;28;20020;-57
2023/03/11 02:45:55;;;;;;;0.85;0.40;;;14.50;62.60;;;;;;10443136;28;20017;-59
2023/03/11 02:50:56;;;;;;;1.05;0.50;;;14.50;62.50;;;;;;10428656;28;20253;-59
2023/03/11 02:55:57;;;;;;;1.33;0.57;;;14.40;62.40;;;;;;10441245;28;20037;-59
2023/03/11 03:00:57;;;;;;;1.13;0.50;;;14.40;62.40;;;;;;10443077;28;20096;-57
2023/03/11 03:05:58;;;;;;;1.58;0.75;;;14.40;62.50;;;;;;10440994;28;20364;-59
2023/03/11 03:10:58;;;;;;;1.02;0.73;;;14.40;62.40;;;;;;10443098;28;20116;-59
2023/03/11 03:15:59;;;;;;;1.65;0.40;;;14.40;62.50;;;;;;10441020;28;20027;-60
2023/03/11 03:21:00;;;;;;;1.73;0.50;;;14.40;62.50;;;;;;10441153;28;20014;-58
2023/03/11 03:26:01;;;;;;;2.38;1.02;;;14.30;62.30;;;;;;10440893;28;20108;-57
2023/03/11 03:31:08;;;;;;;1.15;0.60;;;14.40;62.50;;;;;;10440809;28;20053;-59
2023/03/11 03:36:11;;;;;;;1.25;0.57;;;14.30;62.40;;;;;;10440863;28;20040;-57
2023/03/11 03:41:14;;;;;;;1.63;0.50;;;14.30;62.50;;;;;;10449820;28;20598;-59
2023/03/11 03:46:15;;;;;;;1.15;0.50;;;14.30;62.40;;;;;;10449179;28;20057;-59
2023/03/11 03:51:16;;;;;;;0.30;0.30;;;14.50;62.50;;;;;;10420909;28;20100;-59
2023/03/11 03:56:17;;;;;;;0.82;0.30;;;14.60;61.90;;;;;;10447775;28;20114;-58
2023/03/11 04:01:19;;;;;;;3.50;0.85;;;14.80;61.40;;;;;;10447746;28;20587;-59
2023/03/11 04:06:24;;;;;;;1.15;0.68;;;14.90;60.90;;;;;;10448808;28;20082;-56
2023/03/11 04:11:24;;;;;;;2.15;0.50;;;15.10;60.40;;;;;;10447377;28;20056;-59
2023/03/11 04:16:25;;;;;;;3.80;0.73;;;15.20;59.90;;;;;;10447518;28;20028;-60
2023/03/11 04:21:26;;;;;;;1.45;0.40;;;15.40;60.10;;;;;;10448247;28;20524;-59
2023/03/11 04:26:27;;;;;;;0.80;0.50;;;15.50;59.00;;;;;;10446520;28;20082;-58
2023/03/11 04:31:28;;;;;;;1.90;0.70;;;15.60;58.80;;;;;;10447472;28;20427;-58
2023/03/11 04:36:29;;;;;;;0.90;0.28;;;15.70;58.40;;;;;;10447443;28;20083;-59
2023/03/11 04:41:29;;;;;;;0.90;0.45;;;15.80;58.20;;;;;;10446511;28;20389;-58
2023/03/11 04:46:30;;;;;;;1.38;0.40;;;16.00;57.80;;;;;;10446494;28;20493;-57
2023/03/11 04:51:30;;;;;;;0.95;0.40;;;16.10;57.80;;;;;;10446244;28;20026;-58
2023/03/11 04:56:31;;;;;;;0.77;0.30;;;16.10;57.70;;;;;;10445320;28;20090;-59
2023/03/11 05:01:32;;;;;;;0.70;0.30;;;16.20;57.70;;;;;;10428915;28;20772;-59
2023/03/11 05:06:32;;;;;;;0.68;0.30;;;16.20;57.50;;;;;;10446466;28;20127;-60
2023/03/11 05:11:33;;;;;;;0.63;0.30;;;16.20;57.50;;;;;;10445369;28;20025;-57
2023/03/11 05:16:34;;;;;;;0.50;0.40;;;16.20;57.50;;;;;;10444592;28;20072;-57
2023/03/11 05:21:35;;;;;;;0.93;0.30;;;16.20;57.50;;;;;;10446176;28;20025;-58
2023/03/11 05:26:36;;;;;;;0.40;0.30;;;16.30;57.40;;;;;;10445682;28;20499;-59
2023/03/11 05:31:37;;;;;;;1.95;0.40;;;16.30;57.40;;;;;;10444415;28;20168;-59
2023/03/11 05:36:38;;;;;;;1.02;0.40;;;16.30;57.20;;;;;;10430179;28;20110;-58
2023/03/11 05:41:39;;;;;;;0.40;0.30;;;16.40;57.20;;;;;;10441726;28;20033;-59
2023/03/11 05:46:39;;;;;;;1.08;0.38;;;16.40;57.00;;;;;;10447216;28;20033;-59
2023/03/11 05:51:40;;;;;;;0.77;0.47;;;16.50;56.80;;;;;;10447334;28;20414;-59
2023/03/11 05:56:43;;;;;;;1.10;0.40;;;16.50;56.80;;;;;;10445629;28;20103;-59
2023/03/11 06:01:44;;;;;;;0.63;0.30;;;16.50;56.90;;;;;;10439014;28;20028;-59
2023/03/11 06:06:45;;;;;;;1.55;0.32;;;16.50;56.80;;;;;;10445758;28;20049;-58
2023/03/11 06:11:45;;;;;;;2.55;0.40;;;16.50;56.70;;;;;;10423821;28;20052;-57
2023/03/11 06:16:46;;;;;;;9.05;1.70;;;16.10;58.70;;;;;;10432480;28;20484;-58
2023/03/11 06:21:47;;;;;;;6.22;0.88;;;16.20;58.80;;;;;;10419727;28;20021;-57
2023/03/11 06:26:51;;;;;;;6.93;0.80;;;16.20;59.80;;;;;;10437333;28;20757;-59
2023/03/11 06:31:52;;;;;;;5.00;0.60;;;16.40;59.20;;;;;;10420967;28;20179;-59
2023/03/11 06:36:53;;;;;;;1.20;0.40;;;16.30;59.30;;;;;;10402954;28;20120;-58
2023/03/11 06:41:54;;;;;;;2.05;0.47;;;16.50;57.50;;;;;;10424728;28;20712;-57
2023/03/11 06:46:55;;;;;;;11.85;0.70;;;16.50;58.10;;;;;;10431078;28;20103;-58
2023/03/11 06:51:55;;;;;;;8.77;1.00;;;16.40;60.10;;;;;;10440119;28;20115;-59
2023/03/11 06:56:56;;;;;;;2.67;0.50;;;16.30;59.10;;;;;;10428394;28;20097;-59
2023/03/11 07:01:58;;;;;;;5.57;0.90;;;16.20;60.30;;;;;;10434358;28;20100;-57
2023/03/11 07:06:58;;;;;;;4.15;1.30;;;16.20;58.50;;;;;;10444182;28;20135;-60
2023/03/11 07:11:59;;;;;;;10.05;1.75;;;16.10;61.60;;;;;;10441622;28;20017;-58
2023/03/11 07:17:00;;;;;;;7.32;1.45;;;16.00;62.70;;;;;;10436208;28;20087;-60
2023/03/11 07:22:01;;;;;;;12.77;1.17;;;16.40;60.50;;;;;;10448186;28;20488;-60
2023/03/11 07:27:02;;;;;;;13.38;1.70;;;16.50;61.00;;;;;;10451391;28;20082;-60
2023/03/11 07:32:03;;;;;;;9.98;1.00;;;16.50;61.60;;;;;;10450444;28;20025;-58
2023/03/11 07:37:03;;;;;;;14.30;1.60;;;16.40;62.70;;;;;;10451779;28;20031;-59
2023/03/11 07:42:04;;;;;;;6.22;1.13;;;16.30;63.10;;;;;;10432972;28;20021;-59
2023/03/11 07:47:06;;;;;;;13.48;2.55;;;16.20;62.50;;;;;;10449252;28;20021;-56
2023/03/11 07:52:06;;;;;;;14.70;1.45;;;16.20;62.20;;;;;;10443607;28;20053;-58
2023/03/11 07:57:11;;;;;;;9.63;1.20;;;16.10;61.80;;;;;;10448360;28;20145;-58
2023/03/11 08:02:12;;;;;;;6.80;1.30;;;16.10;61.30;;;;;;10445906;28;20009;-58
2023/03/11 08:07:13;;;;;;;7.18;1.23;;;16.10;61.00;;;;;;10449007;28;20119;-58
2023/03/11 08:12:15;;;;;;;7.15;1.98;;;16.10;60.90;;;;;;10446502;28;20555;-57
2023/03/11 08:17:16;;;;;;;6.60;1.23;;;16.00;60.70;;;;;;10449600;28;20090;-59
2023/03/11 08:22:16;;;;;;;5.93;1.38;;;16.00;60.40;;;;;;10444413;28;20074;-56
2023/03/11 08:27:17;;;;;;;17.50;3.28;;;15.90;60.90;;;;;;10445322;28;20602;-58
2023/03/11 08:32:18;;;;;;;15.30;1.50;;;16.10;61.20;;;;;;10447114;28;20469;-56
2023/03/11 08:37:18;;;;;;;12.25;1.73;;;16.20;61.10;;;;;;10445250;28;20089;-57
2023/03/11 08:42:20;;;;;;;19.10;2.83;;;16.30;61.50;;;;;;10446831;28;20111;-57
2023/03/11 08:47:20;;;;;;;11.45;2.05;;;16.30;61.70;;;;;;10445252;28;20120;-58
2023/03/11 08:52:21;;;;;;;33.25;4.28;;;16.20;61.70;;;;;;10445954;28;20019;-56
2023/03/11 08:57:22;;;;;;;27.38;2.95;;;15.90;63.30;;;;;;10444783;28;20021;-57
2023/03/11 09:02:26;;;;;;;22.95;4.43;;;15.70;64.20;;;;;;10442852;28;20100;-55
2023/03/11 09:07:26;;;;;;;20.35;3.00;;;15.70;64.00;;;;;;10408881;28;1033883;-58
2023/03/11 09:12:27;;;;;;;16.13;2.72;;;15.70;64.30;;;;;;10446131;28;20028;-57
2023/03/11 09:17:28;;;;;;;17.30;3.35;;;15.70;64.30;;;;;;10447519;28;20434;-58
2023/03/11 09:22:29;;;;;;;12.25;2.60;;;15.60;64.40;;;;;;10433947;28;20056;-59
2023/03/11 09:27:29;;;;;;;11.70;2.28;;;15.50;64.30;;;;;;10428898;28;20531;-60
2023/03/11 09:32:30;;;;;;;13.20;2.85;;;15.50;64.00;;;;;;10446474;28;20098;-60
2023/03/11 09:37:31;;;;;;;12.57;2.17;;;15.50;63.90;;;;;;10442850;28;20121;-59
2023/03/11 09:43:31;;;;;;;13.02;1.88;;;15.50;63.80;;;;;;10442411;28;20021;-60
2023/03/11 09:48:42;;;;;;;7.63;1.70;;;15.40;63.90;;;;;;10426213;28;20060;-58
2023/03/11 09:53:46;;;;;;;7.53;1.88;;;15.40;63.80;;;;;;10461043;28;20100;-60
2023/03/11 09:58:49;;;;;;;8.43;2.20;;;15.40;63.70;;;;;;10445727;28;20044;-59
2023/03/11 10:03:54;;;;;;;6.40;1.20;;;15.30;63.60;;;;;;10444403;28;20017;-59
2023/03/11 10:09:09;;;;;;;7.10;1.33;;;15.40;63.80;;;;;;10443698;28;20540;-60
2023/03/11 10:14:43;;;;;;;6.57;1.30;;;15.40;63.50;;;;;;10444368;28;20347;-60
2023/03/11 10:20:03;;;;;;;7.05;1.40;;;15.40;63.30;;;;;;10443576;28;20033;-60
2023/03/11 10:25:26;;;;;;;7.32;1.92;;;15.40;63.30;;;;;;10429195;28;20472;-59
2023/03/11 10:30:59;;;;;;;4.38;1.02;;;15.40;63.30;;;;;;10428769;28;20104;-60
2023/03/11 10:36:11;;;;;;;6.35;2.17;;;15.40;63.80;;;;;;10443466;28;20040;-60
2023/03/11 10:41:30;;;;;;;6.20;0.95;;;15.40;63.20;;;;;;10443701;28;20516;-60
2023/03/11 10:46:30;;;;;;;6.65;1.25;;;15.40;63.00;;;;;;10442993;28;21010;-58
2023/03/11 10:51:34;;;;;;;3.80;0.70;;;15.40;63.00;;;;;;10416745;28;20108;-59
2023/03/11 10:56:40;;;;;;;3.55;0.80;;;15.30;62.90;;;;;;10442237;28;20021;-60
2023/03/11 11:02:20;;;;;;;6.32;1.30;;;15.30;62.80;;;;;;10442871;28;20056;-60
2023/03/11 11:07:35;;;;;;;2.67;0.87;;;15.30;62.80;;;;;;10443375;28;20524;-60
2023/03/11 11:12:35;;;;;;;2.97;1.08;;;15.30;62.80;;;;;;10442601;28;20017;-59
2023/03/11 11:17:36;;;;;;;2.97;0.70;;;15.30;62.90;;;;;;10442486;28;20329;-60
2023/03/11 11:22:38;;;;;;;3.15;1.23;;;15.30;62.60;;;;;;10442202;28;20259;-60
2023/03/11 11:27:54;;;;;;;3.35;0.95;;;15.40;62.60;;;;;;10442395;28;20048;-60
2023/03/11 11:32:55;;;;;;;4.18;1.05;;;15.40;62.30;;;;;;10442145;28;20044;-60
2023/03/11 11:38:03;;;;;;;2.80;0.60;;;15.50;62.20;;;;;;10441816;28;20033;-60
2023/03/11 11:43:20;;;;;;;2.22;0.60;;;15.50;62.10;;;;;;10442241;28;20141;-60
2023/03/11 11:48:50;;;;;;;2.55;0.73;;;15.50;61.90;;;;;;10422355;28;20024;-59
2023/03/11 11:54:39;;;;;;;1.83;0.95;;;15.60;61.90;;;;;;10436890;28;20057;-60
2023/03/11 11:59:40;;;;;;;2.10;1.13;;;15.60;61.80;;;;;;10446680;28;20040;-60
2023/03/11 12:05:05;;;;;;;2.25;0.60;;;15.60;61.70;;;;;;10448932;28;20057;-60
2023/03/11 12:10:21;;;;;;;2.30;0.80;;;15.60;61.60;;;;;;10448824;28;20041;-60
2023/03/11 12:15:28;;;;;;;2.88;0.60;;;15.60;61.60;;;;;;10448173;28;20027;-61
2023/03/11 12:20:37;;;;;;;2.13;0.75;;;15.60;61.50;;;;;;10448362;28;20027;-60
2023/03/11 12:25:56;;;;;;;2.00;0.88;;;15.60;61.50;;;;;;10448295;28;20055;-59
2023/03/11 12:31:02;;;;;;;0.97;0.50;;;15.60;61.40;;;;;;10448095;28;20035;-61
2023/03/11 12:36:05;;;;;;;3.35;0.60;;;15.70;61.40;;;;;;10447969;28;20455;-60
2023/03/11 12:41:12;;;;;;;2.80;0.60;;;15.70;61.50;;;;;;10447757;28;20483;-60
2023/03/11 12:46:17;;;;;;;1.70;0.55;;;15.60;61.70;;;;;;10448891;28;20029;-60
2023/03/11 12:51:33;;;;;;;1.48;0.57;;;15.70;61.60;;;;;;10447163;28;20476;-60
2023/03/11 12:56:42;;;;;;;1.88;0.50;;;15.70;61.60;;;;;;10448514;28;20044;-60
2023/03/11 13:02:19;;;;;;;3.17;0.70;;;15.70;61.60;;;;;;10446913;28;20669;-60
2023/03/11 13:07:25;;;;;;;0.57;0.30;;;15.70;61.50;;;;;;10448038;28;20045;-59
2023/03/11 13:12:49;;;;;;;1.52;0.73;;;15.70;61.40;;;;;;10446264;28;20078;-60
2023/03/11 13:18:17;;;;;;;1.52;0.63;;;15.80;61.30;;;;;;10437799;28;20068;-60
2023/03/11 13:23:40;;;;;;;1.15;0.40;;;15.70;61.30;;;;;;10446453;28;20047;-60
2023/03/11 13:29:05;;;;;;;2.28;0.60;;;15.80;61.20;;;;;;10429154;28;20040;-60
2023/03/11 13:34:06;;;;;;;1.85;0.52;;;15.70;61.20;;;;;;10446398;28;20021;-59
2023/03/11 13:39:35;;;;;;;1.10;0.40;;;15.70;61.10;;;;;;10446875;28;20041;-59
2023/03/11 13:44:39;;;;;;;2.83;0.50;;;15.70;61.20;;;;;;10429544;28;20025;-60
2023/03/11 13:50:06;;;;;;;1.30;0.40;;;15.70;61.10;;;;;;10415385;28;20013;-61
2023/03/11 13:55:32;;;;;;;0.65;0.40;;;15.70;61.10;;;;;;10446164;28;20033;-60
2023/03/11 14:00:33;;;;;;;2.50;0.65;;;15.70;61.10;;;;;;10429937;28;20021;-59
2023/03/11 14:05:37;;;;;;;0.45;0.30;;;15.70;61.10;;;;;;10444458;28;20029;-60
2023/03/11 14:10:37;;;;;;;0.98;0.40;;;15.70;61.30;;;;;;10444405;28;20048;-60
2023/03/11 14:16:19;;;;;;;0.38;0.30;;;15.70;61.20;;;;;;10444263;28;20021;-60
2023/03/11 14:21:21;;;;;;;0.80;0.30;;;15.70;61.30;;;;;;10443608;28;20066;-60
2023/03/11 14:26:33;;;;;;;0.22;0.20;;;15.60;61.40;;;;;;10444307;28;20036;-60
2023/03/11 14:31:37;;;;;;;0.32;0.30;;;15.60;61.40;;;;;;10443805;28;20048;-58
2023/03/11 14:36:59;;;;;;;1.15;0.20;;;15.60;61.40;;;;;;10443101;28;20106;-60
2023/03/11 14:42:39;;;;;;;1.02;0.40;;;15.60;61.50;;;;;;10444649;28;20024;-60
2023/03/11 14:48:10;;;;;;;0.63;0.30;;;15.50;61.50;;;;;;10445091;28;20022;-59
2023/03/11 14:53:24;;;;;;;0.77;0.20;;;15.50;61.40;;;;;;10447849;28;20112;-61
2023/03/11 14:58:41;;;;;;;2.22;0.43;;;15.50;61.40;;;;;;10451668;28;20056;-60
2023/03/11 15:04:14;;;;;;;0.82;0.30;;;15.50;61.40;;;;;;10443163;28;20017;-59
2023/03/11 15:09:19;;;;;;;0.40;0.32;;;15.40;61.50;;;;;;10443928;28;20045;-61
2023/03/11 15:14:24;;;;;;;1.17;0.88;;;15.50;61.50;;;;;;10442925;28;20235;-60
2023/03/11 15:19:27;;;;;;;1.20;0.50;;;15.50;61.40;;;;;;10442756;28;20029;-60
2023/03/11 15:24:31;;;;;;;0.93;0.55;;;15.50;61.30;;;;;;10443691;28;20021;-61
2023/03/11 15:29:34;;;;;;;0.75;0.35;;;15.50;61.30;;;;;;10442596;28;20025;-61
2023/03/11 15:34:35;;;;;;;13.10;0.90;;;15.40;61.20;;;;;;10446628;28;20074;-59
2023/03/11 15:39:37;;;;;;;7.32;1.10;;;15.40;61.30;;;;;;10437451;28;20534;-60
2023/03/11 15:44:49;;;;;;;4.47;0.60;;;15.40;61.70;;;;;;10434156;28;20380;-59
2023/03/11 15:49:50;;;;;;;11.30;1.70;;;15.40;61.50;;;;;;10424256;28;20029;-60
2023/03/11 15:54:50;;;;;;;5.95;0.70;;;15.40;61.60;;;;;;10449536;28;20072;-61
2023/03/11 15:59:54;;;;;;;3.47;0.55;;;15.40;61.50;;;;;;10432490;28;20461;-60
2023/03/11 16:04:56;;;;;;;10.60;1.13;;;15.30;61.40;;;;;;10432762;28;20024;-61
2023/03/11 16:09:57;;;;;;;2.05;0.75;;;15.30;61.40;;;;;;10448850;28;20053;-60
2023/03/11 16:14:57;;;;;;;2.22;0.57;;;15.30;61.50;;;;;;10448966;28;20065;-60
2023/03/11 16:19:58;;;;;;;2.90;0.52;;;15.30;61.50;;;;;;10450563;28;20111;-60
2023/03/11 16:25:01;;;;;;;2.53;0.43;;;15.20;61.40;;;;;;10448357;28;20080;-60
2023/03/11 16:30:02;;;;;;;4.43;0.55;;;15.20;61.40;;;;;;10448613;28;20021;-60
2023/03/11 16:35:04;;;;;;;2.05;0.65;;;15.30;61.40;;;;;;10448189;28;20033;-60
2023/03/11 16:40:06;;;;;;;1.35;0.35;;;15.20;61.30;;;;;;10449732;28;20416;-60
2023/03/11 16:45:07;;;;;;;0.82;0.30;;;15.20;61.30;;;;;;10448531;28;20032;-61
2023/03/11 16:50:09;;;;;;;2.45;0.50;;;15.20;61.30;;;;;;10434130;28;20134;-60
2023/03/11 16:55:10;;;;;;;1.70;0.43;;;15.20;61.40;;;;;;10447198;28;20025;-60
2023/03/11 17:00:13;;;;;;;2.42;0.40;;;15.20;61.30;;;;;;10447168;28;20494;-60
2023/03/11 17:05:14;;;;;;;1.13;0.45;;;15.20;61.30;;;;;;10447047;28;20032;-59
2023/03/11 17:10:15;;;;;;;1.42;0.50;;;15.20;61.00;;;;;;10448321;28;20084;-61
2023/03/11 17:15:15;;;;;;;1.20;0.68;;;15.20;60.90;;;;;;10446208;28;20072;-60
2023/03/11 17:20:16;;;;;;;3.20;1.05;;;15.30;61.00;;;;;;10446739;28;20024;-60
2023/03/11 17:25:17;;;;;;;2.28;0.50;;;15.30;60.80;;;;;;10446190;28;20388;-60
2023/03/11 17:30:20;;;;;;;1.95;0.55;;;15.30;60.70;;;;;;10445503;28;20392;-60
2023/03/11 17:35:20;;;;;;;1.92;0.50;;;15.40;60.70;;;;;;10447307;28;20120;-60
2023/03/11 17:40:21;;;;;;;1.52;0.43;;;15.30;60.60;;;;;;10447359;28;20021;-58
2023/03/11 17:45:22;;;;;;;0.85;0.32;;;15.30;60.50;;;;;;10446563;28;20107;-59
2023/03/11 17:50:22;;;;;;;3.10;0.50;;;15.40;60.40;;;;;;10431652;28;20055;-60
2023/03/11 17:55:23;;;;;;;3.00;0.40;;;15.40;60.20;;;;;;10445614;28;20188;-60
2023/03/11 18:00:24;;;;;;;1.45;0.50;;;15.30;59.70;;;;;;10444867;28;20048;-60
2023/03/11 18:05:25;;;;;;;0.47;0.30;;;15.40;59.70;;;;;;10427120;28;20047;-60
2023/03/11 18:10:26;;;;;;;2.05;0.50;;;15.40;59.40;;;;;;10443142;28;20052;-61
2023/03/11 18:15:27;;;;;;;1.00;0.40;;;15.50;58.80;;;;;;10442914;28;20623;-60
2023/03/11 18:20:27;;;;;;;2.60;0.40;;;15.50;58.80;;;;;;10443032;28;20013;-61
2023/03/11 18:25:28;;;;;;;0.55;0.40;;;15.50;58.70;;;;;;10443608;28;20021;-61
2023/03/11 18:30:29;;;;;;;1.25;0.50;;;15.50;58.90;;;;;;10443642;28;20096;-61
2023/03/11 18:35:30;;;;;;;0.50;0.30;;;15.60;58.20;;;;;;10442050;28;20029;-60
2023/03/11 18:40:31;;;;;;;1.25;0.40;;;15.60;58.50;;;;;;10443529;28;20025;-60
2023/03/11 18:45:31;;;;;;;1.35;0.47;;;15.60;58.30;;;;;;10443450;28;20084;-60
2023/03/11 18:50:32;;;;;;;1.13;0.40;;;15.50;58.30;;;;;;10428462;28;20527;-61
2023/03/11 18:55:36;;;;;;;1.02;0.30;;;15.60;58.00;;;;;;10440807;28;20124;-60
2023/03/11 19:00:36;;;;;;;0.88;0.40;;;15.60;57.90;;;;;;10432633;28;20037;-61
2023/03/11 19:05:37;;;;;;;1.23;0.30;;;15.60;58.20;;;;;;10442797;28;20523;-60
2023/03/11 19:10:40;;;;;;;0.50;0.40;;;15.50;58.40;;;;;;10446825;28;20059;-58
2023/03/11 19:15:40;;;;;;;5.60;0.60;;;15.60;57.40;;;;;;10451011;28;20033;-62
2023/03/11 19:20:41;;;;;;;2.65;0.55;;;15.80;57.40;;;;;;10447982;28;20028;-59
2023/03/11 19:25:42;;;;;;;0.88;0.50;;;15.90;58.40;;;;;;10448245;28;20056;-60
2023/03/11 19:30:43;;;;;;;3.22;0.47;;;16.00;58.10;;;;;;10448411;28;20658;-60
2023/03/11 19:35:43;;;;;;;1.48;0.73;;;16.00;58.00;;;;;;10437844;28;20396;-60
2023/03/11 19:40:44;;;;;;;1.30;0.60;;;16.00;57.70;;;;;;10443806;28;20112;-62
2023/03/11 19:45:49;;;;;;;1.85;0.40;;;16.00;57.90;;;;;;10429779;28;20027;-65
2023/03/11 19:50:51;;;;;;;3.65;0.50;;;15.90;58.50;;;;;;10447232;28;20147;-61
2023/03/11 19:55:55;;;;;;;3.42;0.75;;;15.80;58.80;;;;;;10462302;28;20430;-60
2023/03/11 20:00:57;;;;;;;3.20;0.50;;;15.80;58.80;;;;;;10447041;28;20092;-61
2023/03/11 20:06:04;;;;;;;2.45;0.68;;;15.80;58.70;;;;;;10447333;28;20017;-60
2023/03/11 20:11:05;;;;;;;2.92;0.47;;;15.80;58.90;;;;;;10430461;28;20045;-59
2023/03/11 20:16:13;;;;;;;3.42;0.80;;;15.80;58.80;;;;;;10430391;28;20029;-59
2023/03/11 20:21:14;;;;;;;4.00;0.57;;;15.80;58.70;;;;;;10447828;28;20103;-61
2023/03/11 20:26:17;;;;;;;2.38;0.50;;;15.80;58.80;;;;;;10447226;28;20049;-60
2023/03/11 20:31:21;;;;;;;2.05;0.68;;;15.80;58.80;;;;;;10447225;28;20367;-60
2023/03/11 20:36:26;;;;;;;0.90;0.40;;;15.80;58.80;;;;;;10437671;28;20037;-63
2023/03/11 20:41:27;;;;;;;1.67;0.50;;;15.70;59.00;;;;;;10458265;28;20021;-59
2023/03/11 20:46:30;;;;;;;3.08;0.57;;;15.60;59.30;;;;;;10443749;28;20029;-61
2023/03/11 20:51:30;;;;;;;2.22;0.75;;;15.50;59.20;;;;;;10431813;28;20017;-62
2023/03/11 20:56:31;;;;;;;0.93;0.50;;;15.40;59.20;;;;;;10441645;28;20028;-62
2023/03/11 21:01:33;;;;;;;2.05;0.77;;;15.40;59.20;;;;;;10430435;28;20070;-62
2023/03/11 21:06:39;;;;;;;1.35;0.43;;;15.30;59.10;;;;;;10443361;28;20114;-61
2023/03/11 21:11:41;;;;;;;4.68;0.50;;;15.20;59.10;;;;;;10445902;28;20009;-62
2023/03/11 21:16:43;;;;;;;2.20;1.20;;;15.20;59.30;;;;;;10425428;28;20033;-61
2023/03/11 21:21:44;;;;;;;2.03;0.40;;;15.20;59.30;;;;;;10437550;28;20479;-61
2023/03/11 21:26:45;;;;;;;0.88;0.50;;;15.10;59.40;;;;;;10428296;28;20045;-62
2023/03/11 21:31:45;;;;;;;1.63;0.70;;;15.10;59.50;;;;;;10443372;28;20413;-62
2023/03/11 21:36:46;;;;;;;3.50;0.75;;;15.00;59.30;;;;;;10444432;28;20068;-62
2023/03/11 21:41:47;;;;;;;3.28;0.80;;;15.00;59.60;;;;;;10445303;28;20158;-62
2023/03/11 21:46:47;;;;;;;1.20;0.60;;;14.90;59.60;;;;;;10444713;28;20025;-61
2023/03/11 21:51:48;;;;;;;1.38;0.60;;;14.90;59.70;;;;;;10431646;28;20049;-61
2023/03/11 21:56:49;;;;;;;1.52;0.68;;;14.80;60.00;;;;;;10443633;28;20021;-62
2023/03/11 22:01:49;;;;;;;1.58;0.63;;;14.80;60.60;;;;;;10434808;28;20045;-61
2023/03/11 22:06:50;;;;;;;2.92;0.68;;;14.80;60.00;;;;;;10443066;28;20111;-61
2023/03/11 22:11:50;;;;;;;2.63;1.17;;;14.80;60.10;;;;;;10439479;28;20429;-61
2023/03/11 22:16:51;;;;;;;2.33;0.82;;;14.70;60.50;;;;;;10425881;28;20033;-62
2023/03/11 22:21:52;;;;;;;1.63;0.85;;;14.70;60.40;;;;;;10442297;28;20017;-61
2023/03/11 22:26:53;;;;;;;3.22;1.00;;;14.70;60.20;;;;;;10443577;28;20096;-60
2023/03/11 22:31:53;;;;;;;2.65;0.95;;;14.70;60.30;;;;;;10443713;28;20060;-60
2023/03/11 22:36:54;;;;;;;3.05;0.98;;;14.60;60.50;;;;;;10426114;28;20033;-61
2023/03/11 22:41:55;;;;;;;2.22;1.05;;;14.60;60.80;;;;;;10442598;28;20158;-61
2023/03/11 22:46:56;;;;;;;2.67;1.45;;;14.60;60.60;;;;;;10441567;28;20535;-60
2023/03/11 22:51:57;;;;;;;3.05;1.13;;;14.50;60.50;;;;;;10438634;28;20025;-61
2023/03/11 22:56:57;;;;;;;2.55;1.45;;;14.50;60.60;;;;;;10442985;28;20421;-61
2023/03/11 23:01:58;;;;;;;2.28;1.38;;;14.50;60.50;;;;;;10445228;28;20044;-62
2023/03/11 23:06:59;;;;;;;2.40;1.65;;;14.50;60.50;;;;;;10446202;28;20103;-61
2023/03/11 23:12:02;;;;;;;2.15;1.40;;;14.40;60.40;;;;;;10446276;28;20096;-62
2023/03/11 23:17:03;;;;;;;3.55;1.42;;;14.40;60.40;;;;;;10444727;28;20025;-61
2023/03/11 23:22:03;;;;;;;2.65;1.33;;;14.40;60.40;;;;;;10444828;28;20017;-60
2023/03/11 23:27:04;;;;;;;2.53;1.30;;;14.40;60.40;;;;;;10444731;28;20021;-61
2023/03/11 23:32:05;;;;;;;2.80;1.90;;;14.40;60.40;;;;;;10444666;28;20483;-61
2023/03/11 23:37:06;;;;;;;2.88;1.50;;;14.40;60.40;;;;;;10444556;28;20855;-61
2023/03/11 23:42:07;;;;;;;2.88;1.80;;;14.40;60.40;;;;;;10444228;28;20021;-61
2023/03/11 23:47:07;;;;;;;3.00;1.83;;;14.40;60.40;;;;;;10430938;28;20018;-61
2023/03/11 23:52:08;;;;;;;6.03;1.95;;;14.30;60.40;;;;;;10443967;28;20017;-62
2023/03/11 23:57:09;;;;;;;2.53;1.67;;;14.30;60.30;;;;;;10452071;28;20607;-61
